Time;durP1;ratioP1;P1;durP2;ratioP2;P2;SDS_P1;SDS_P2;PMS_P1;PMS_P2;Temp;Humidity;BMP_temperature;BMP_pressure;BME280_temperature;BME280_humidity;BME280_pressure;Samples;Min_cycle;Max_cycle;Signal;HPM_P1;HPM_P2
2022/07/26 00:01:59;;;;;;;5.18;1.35;;;;;;;25.68;45.21;101194.03;5085041;28;20028;-59
2022/07/26 00:04:25;;;;;;;3.28;1.35;;;;;;;25.67;45.28;101192.34;5085604;28;20051;-59
2022/07/26 00:06:50;;;;;;;4.20;1.73;;;;;;;25.67;45.31;101192.34;5084881;28;20111;-59
2022/07/26 00:09:15;;;;;;;5.18;1.50;;;;;;;25.63;45.12;101191.09;5085309;28;20074;-59
2022/07/26 00:11:41;;;;;;;4.22;1.48;;;;;;;25.67;45.16;101199.69;5084953;28;20036;-59
2022/07/26 00:14:07;;;;;;;6.28;2.40;;;;;;;25.67;45.25;101194.25;5085630;28;20039;-61
2022/07/26 00:16:33;;;;;;;3.58;1.30;;;;;;;25.66;45.40;101192.56;5084916;28;20048;-59
2022/07/26 00:18:58;;;;;;;3.78;1.42;;;;;;;25.67;45.35;101199.69;5085179;28;20024;-59
2022/07/26 00:21:24;;;;;;;4.00;1.45;;;;;;;25.65;45.21;101191.69;5085307;28;20020;-59
2022/07/26 00:23:49;;;;;;;4.60;1.35;;;;;;;25.65;45.47;101188.16;5085381;28;20080;-59
2022/07/26 00:26:14;;;;;;;6.85;1.70;;;;;;;25.64;45.42;101195.47;5085242;28;20025;-59
2022/07/26 00:28:40;;;;;;;3.88;1.45;;;;;;;25.61;45.28;101190.44;5085175;28;20051;-60
2022/07/26 00:31:05;;;;;;;3.80;1.30;;;;;;;25.65;45.57;101196.31;5085098;28;20043;-59
2022/07/26 00:33:31;;;;;;;7.00;1.83;;;;;;;25.64;45.44;101190.03;5085254;28;20104;-59
2022/07/26 00:35:56;;;;;;;4.07;1.35;;;;;;;25.63;45.34;101191.09;5085185;28;20031;-59
2022/07/26 00:38:21;;;;;;;3.85;1.35;;;;;;;25.64;45.52;101200.94;5085009;28;20500;-59
2022/07/26 00:40:46;;;;;;;3.65;1.10;;;;;;;25.64;45.48;101194.66;5085179;28;20527;-59
2022/07/26 00:43:11;;;;;;;4.00;1.20;;;;;;;25.64;45.36;101200.94;5084784;28;20036;-59
2022/07/26 00:45:37;;;;;;;5.13;1.70;;;;;;;25.58;45.78;101192.75;5084790;28;20025;-59
2022/07/26 00:48:02;;;;;;;3.45;1.00;;;;;;;25.62;45.71;101197.59;5084412;28;20032;-59
2022/07/26 00:50:28;;;;;;;5.63;2.08;;;;;;;25.63;45.72;101201.13;5085066;28;20077;-60
2022/07/26 00:52:54;;;;;;;3.33;1.40;;;;;;;25.61;45.44;101208.66;5084746;28;20032;-60
2022/07/26 00:55:19;;;;;;;4.35;1.35;;;;;;;25.62;45.95;101204.91;5085097;28;20060;-59
2022/07/26 00:57:45;;;;;;;4.53;1.70;;;;;;;25.62;45.83;101213.91;5083349;28;20033;-60
2022/07/26 01:00:13;;;;;;;3.72;1.40;;;;;;;25.52;45.58;101205.28;5085015;28;20020;-60
2022/07/26 01:02:39;;;;;;;5.10;1.38;;;;;;;25.60;45.86;101213.28;5076184;28;20020;-59
2022/07/26 01:05:05;;;;;;;4.07;1.45;;;;;;;25.60;45.66;101216.00;5070312;28;20062;-59
2022/07/26 01:07:31;;;;;;;4.60;1.40;;;;;;;25.59;45.80;101213.50;5071238;28;20048;-59
2022/07/26 01:09:56;;;;;;;5.88;1.50;;;;;;;25.55;45.74;101206.78;5067655;28;20013;-59
2022/07/26 01:12:21;;;;;;;5.57;1.58;;;;;;;25.58;45.92;101214.53;5088128;28;20508;-59
2022/07/26 01:14:47;;;;;;;5.70;2.00;;;;;;;25.58;45.91;101209.94;5070682;28;20074;-59
2022/07/26 01:17:13;;;;;;;6.72;2.13;;;;;;;25.49;46.03;101194.84;5087848;28;20036;-59
2022/07/26 01:19:38;;;;;;;6.72;1.80;;;;;;;25.56;46.00;101211.16;5079048;28;20025;-59
2022/07/26 01:22:04;;;;;;;5.72;1.42;;;;;;;25.56;45.93;101206.56;5068373;28;20037;-59
2022/07/26 01:24:29;;;;;;;4.70;1.92;;;;;;;25.53;45.95;101197.97;5068629;28;20028;-59
2022/07/26 01:26:55;;;;;;;4.85;1.42;;;;;;;25.56;46.06;101205.72;5067941;28;20029;-59
2022/07/26 01:29:21;;;;;;;6.43;1.73;;;;;;;25.48;45.90;101192.28;5068307;28;20025;-58
2022/07/26 01:31:46;;;;;;;6.50;1.77;;;;;;;25.53;45.98;101197.97;5067939;28;20048;-58
2022/07/26 01:34:11;;;;;;;4.25;1.63;;;;;;;25.46;46.31;101189.78;5068292;28;20074;-59
2022/07/26 01:36:37;;;;;;;6.35;1.67;;;;;;;25.54;45.97;101195.06;5076654;28;20032;-58
2022/07/26 01:39:02;;;;;;;5.40;1.67;;;;;;;25.51;46.15;101192.72;5087968;28;20044;-59
2022/07/26 01:41:27;;;;;;;6.15;2.63;;;;;;;25.52;46.19;101186.22;5086966;28;20081;-58
2022/07/26 01:43:53;;;;;;;5.15;1.48;;;;;;;25.53;45.98;101190.66;5087633;28;20044;-58
2022/07/26 01:46:18;;;;;;;4.80;1.80;;;;;;;25.52;46.24;101188.13;5087304;28;20028;-59
2022/07/26 01:48:43;;;;;;;6.40;1.95;;;;;;;25.52;46.11;101191.69;5087438;28;20119;-59
2022/07/26 01:51:08;;;;;;;4.72;1.77;;;;;;;25.46;46.29;101187.06;5087826;28;20044;-59
2022/07/26 01:53:34;;;;;;;4.75;1.90;;;;;;;25.51;46.12;101198.19;5087525;28;20031;-59
2022/07/26 01:55:59;;;;;;;4.72;1.33;;;;;;;25.50;46.33;101196.50;5087831;28;20044;-59
2022/07/26 01:58:24;;;;;;;6.28;2.28;;;;;;;25.51;46.15;101203.63;5087415;28;20063;-59
2022/07/26 02:00:50;;;;;;;4.93;2.20;;;;;;;25.41;46.30;101184.13;5087722;28;20058;-59
2022/07/26 02:03:15;;;;;;;4.35;1.27;;;;;;;25.51;46.23;101197.34;5087116;28;20035;-59
2022/07/26 02:05:40;;;;;;;4.30;1.70;;;;;;;25.24;46.38;101151.00;5087435;28;20025;-60
2022/07/26 02:08:05;;;;;;;5.65;1.80;;;;;;;25.50;46.20;101198.41;5086971;28;20032;-59
2022/07/26 02:13:15;;;;;;;5.93;1.77;;;;;;;25.49;46.15;101200.28;5067339;28;20036;-59
2022/07/26 02:15:41;;;;;;;4.57;1.60;;;;;;;25.41;46.14;101189.56;5067480;28;20021;-59
2022/07/26 02:18:06;;;;;;;6.18;1.90;;;;;;;25.48;46.29;101201.31;5064420;28;20039;-59
2022/07/26 02:20:32;;;;;;;6.32;1.77;;;;;;;25.47;46.16;101205.06;5067243;28;20025;-59
2022/07/26 02:22:59;;;;;;;5.75;1.60;;;;;;;25.48;46.42;101195.03;5067355;28;20036;-60
2022/07/26 02:25:24;;;;;;;4.88;1.42;;;;;;;25.47;46.34;101196.91;5067292;28;20485;-60
2022/07/26 02:27:49;;;;;;;7.90;1.80;;;;;;;25.43;46.22;101188.31;5066696;28;20037;-59
2022/07/26 02:30:15;;;;;;;5.07;1.70;;;;;;;25.46;46.50;101202.56;5067307;28;20020;-59
2022/07/26 02:32:42;;;;;;;7.55;1.85;;;;;;;25.45;46.48;101201.72;5066725;28;20033;-59
2022/07/26 02:35:08;;;;;;;6.85;1.70;;;;;;;25.38;46.48;101200.88;5067191;28;20084;-60
2022/07/26 02:37:33;;;;;;;5.78;1.85;;;;;;;25.39;46.31;101202.53;5066650;28;20068;-59
2022/07/26 02:39:58;;;;;;;6.15;1.70;;;;;;;25.44;46.40;101208.19;5067257;28;20017;-60
2022/07/26 02:42:24;;;;;;;4.15;1.55;;;;;;;25.43;46.28;101210.09;5066366;28;20057;-60
2022/07/26 02:44:49;;;;;;;4.75;1.73;;;;;;;25.22;46.63;101190.34;5066786;28;20563;-59
2022/07/26 02:47:14;;;;;;;3.85;1.63;;;;;;;25.42;46.52;101222.03;5065829;28;20048;-59
2022/07/26 02:49:39;;;;;;;4.05;1.38;;;;;;;25.41;46.24;101224.97;5066421;28;20032;-60
2022/07/26 02:52:05;;;;;;;3.67;1.33;;;;;;;25.41;46.31;101222.25;5065302;28;20025;-59
2022/07/26 02:54:30;;;;;;;5.45;1.70;;;;;;;25.36;46.34;101216.53;5066590;28;20039;-59
2022/07/26 02:56:55;;;;;;;3.78;1.80;;;;;;;25.40;46.36;101232.28;5066394;28;20016;-59
2022/07/26 02:59:20;;;;;;;6.43;1.90;;;;;;;25.38;46.26;101228.09;5066415;28;20050;-59
2022/07/26 03:01:46;;;;;;;5.88;1.70;;;;;;;25.37;46.38;101227.25;5066180;28;20032;-59
2022/07/26 03:04:11;;;;;;;3.75;1.48;;;;;;;25.32;46.46;101220.75;5066489;28;20033;-58
2022/07/26 03:06:36;;;;;;;3.15;1.52;;;;;;;25.39;46.45;101232.47;5066259;28;20031;-58
2022/07/26 03:09:03;;;;;;;4.50;1.52;;;;;;;25.38;46.41;101234.38;5066312;28;20041;-59
2022/07/26 03:11:28;;;;;;;5.45;1.65;;;;;;;25.37;46.42;101235.41;5081163;28;20071;-59
2022/07/26 03:13:53;;;;;;;4.10;1.50;;;;;;;25.38;46.52;101239.81;5086125;28;20029;-59
2022/07/26 03:16:19;;;;;;;5.35;1.55;;;;;;;25.37;46.44;101240.03;5086014;28;20039;-59
2022/07/26 03:18:44;;;;;;;6.40;2.20;;;;;;;25.37;46.48;101245.47;5085946;28;20088;-60
2022/07/26 03:21:10;;;;;;;7.45;1.70;;;;;;;25.33;46.82;101238.75;5086237;28;20047;-60
2022/07/26 03:23:35;;;;;;;6.28;2.15;;;;;;;25.35;46.54;101242.09;5086038;28;20032;-58
2022/07/26 03:26:01;;;;;;;5.57;1.83;;;;;;;25.35;46.43;101248.38;5086020;28;20485;-59
2022/07/26 03:28:30;;;;;;;7.15;1.55;;;;;;;25.33;46.45;101249.63;5085738;28;20035;-59
2022/07/26 03:30:55;;;;;;;2.95;1.17;;;;;;;25.35;46.31;101258.41;5086104;28;20024;-60
2022/07/26 03:33:20;;;;;;;4.45;1.58;;;;;;;25.34;46.51;101259.47;5085744;28;20204;-59
2022/07/26 03:35:45;;;;;;;4.78;1.67;;;;;;;25.33;46.48;101261.34;5085834;28;20047;-59
2022/07/26 03:38:11;;;;;;;8.20;1.67;;;;;;;25.33;46.39;101261.34;5085692;28;20106;-58
2022/07/26 03:40:36;;;;;;;4.45;1.55;;;;;;;25.27;46.46;101261.31;5085631;28;20035;-60
2022/07/26 03:43:01;;;;;;;2.75;1.20;;;;;;;25.32;46.40;101272.47;5085269;28;20057;-59
2022/07/26 03:45:28;;;;;;;4.88;1.75;;;;;;;25.31;46.49;101271.59;5085542;28;20029;-60
2022/07/26 03:47:53;;;;;;;5.10;1.60;;;;;;;25.31;46.39;101278.91;5085058;28;20050;-59
2022/07/26 03:50:18;;;;;;;3.88;1.67;;;;;;;25.31;46.42;101284.38;5085723;28;20021;-59
2022/07/26 03:52:43;;;;;;;4.40;1.40;;;;;;;25.30;46.37;101283.53;5085370;28;20035;-59
2022/07/26 03:57:53;;;;;;;3.97;1.23;;;;;;;25.23;46.57;101277.22;5085007;28;20094;-58
2022/07/26 04:00:19;;;;;;;4.22;1.70;;;;;;;25.27;46.50;101288.53;5085506;28;20025;-58
2022/07/26 04:02:44;;;;;;;4.82;1.75;;;;;;;25.27;46.28;101291.25;5085019;28;20111;-60
2022/07/26 04:05:10;;;;;;;5.50;1.52;;;;;;;25.22;46.53;101286.41;5085477;28;20029;-59
2022/07/26 04:07:45;;;;;;;5.00;1.40;;;;;;;25.26;46.64;101290.41;5085063;28;20028;-59
2022/07/26 04:10:11;;;;;;;6.43;1.73;;;;;;;25.27;46.54;101302.13;5081320;28;20021;-57
2022/07/26 04:12:37;;;;;;;5.55;1.38;;;;;;;25.20;46.65;101283.06;5065024;28;20027;-59
2022/07/26 04:15:03;;;;;;;4.50;1.55;;;;;;;25.18;46.59;101282.41;5065620;28;20048;-59
2022/07/26 04:17:29;;;;;;;3.10;1.08;;;;;;;25.24;46.61;101292.50;5064763;28;20025;-60
2022/07/26 04:19:54;;;;;;;4.28;1.85;;;;;;;25.24;46.58;101299.84;5065082;28;20493;-60
2022/07/26 04:22:19;;;;;;;5.20;1.80;;;;;;;25.20;46.70;101293.97;5064873;28;20040;-59
2022/07/26 04:24:44;;;;;;;3.67;1.35;;;;;;;25.23;46.70;101296.25;5065375;28;20097;-60
2022/07/26 04:27:10;;;;;;;3.15;1.52;;;;;;;25.23;46.66;101298.97;5065133;28;20025;-59
2022/07/26 04:29:35;;;;;;;5.72;1.88;;;;;;;25.24;46.63;101302.56;5065067;28;20036;-59
2022/07/26 04:32:00;;;;;;;3.78;1.58;;;;;;;25.20;46.73;101296.69;5064896;28;20093;-60
2022/07/26 04:34:25;;;;;;;5.40;1.50;;;;;;;25.23;46.63;101300.88;5065259;28;20029;-60
2022/07/26 04:36:51;;;;;;;4.80;1.70;;;;;;;25.23;46.47;101298.97;5064737;28;20032;-59
2022/07/26 04:39:23;;;;;;;4.35;1.40;;;;;;;25.22;46.64;101297.31;5064893;28;20040;-59
2022/07/26 04:41:48;;;;;;;5.30;1.58;;;;;;;25.23;46.36;101295.41;5065584;28;20381;-60
2022/07/26 04:44:13;;;;;;;6.10;2.05;;;;;;;25.16;46.56;101298.13;5069079;28;20049;-60
2022/07/26 04:46:38;;;;;;;4.43;1.67;;;;;;;25.22;46.50;101304.63;5068109;28;20088;-60
2022/07/26 04:49:04;;;;;;;4.07;1.42;;;;;;;25.22;46.56;101312.78;5068620;28;20025;-60
2022/07/26 04:51:29;;;;;;;3.83;1.50;;;;;;;25.22;46.51;101310.06;5068935;28;20037;-60
2022/07/26 04:53:54;;;;;;;2.75;1.10;;;;;;;25.21;46.50;101317.41;5068960;28;20029;-59
2022/07/26 04:56:19;;;;;;;3.13;1.38;;;;;;;25.21;46.54;101313.84;5068980;28;20017;-59
2022/07/26 04:58:45;;;;;;;3.17;1.00;;;;;;;25.20;46.54;101318.44;5068403;28;20025;-59
2022/07/26 05:01:10;;;;;;;2.80;1.30;;;;;;;25.19;46.38;101322.22;5068767;28;20040;-59
2022/07/26 05:03:35;;;;;;;3.20;1.58;;;;;;;25.18;46.55;101326.78;5067600;28;20114;-59
2022/07/26 05:06:00;;;;;;;5.07;1.42;;;;;;;25.19;46.36;101335.81;5065812;28;20029;-57
2022/07/26 05:08:26;;;;;;;4.00;1.52;;;;;;;25.18;46.62;101334.97;5048441;28;20017;-60
2022/07/26 05:10:51;;;;;;;2.85;1.33;;;;;;;25.17;46.54;101338.72;5067740;28;20054;-59
2022/07/26 05:13:16;;;;;;;5.22;1.77;;;;;;;25.16;46.59;101342.50;5088157;28;20052;-60
2022/07/26 05:15:42;;;;;;;2.55;1.17;;;;;;;25.14;46.62;101347.28;5088651;28;20044;-60
2022/07/26 05:18:09;;;;;;;5.53;1.60;;;;;;;25.13;46.67;101353.78;5087660;28;20103;-60
2022/07/26 05:20:35;;;;;;;3.90;1.40;;;;;;;25.16;46.79;101360.72;5088550;28;20032;-60
2022/07/26 05:23:01;;;;;;;4.93;1.40;;;;;;;25.15;46.62;101359.88;5088088;28;20025;-60
2022/07/26 05:25:27;;;;;;;2.67;1.00;;;;;;;25.10;47.02;101350.59;5088581;28;20102;-60
2022/07/26 05:27:52;;;;;;;1.77;0.95;;;;;;;25.14;46.90;101347.28;5087496;28;20108;-59
2022/07/26 05:30:18;;;;;;;3.38;1.10;;;;;;;25.14;46.99;101360.06;5088419;28;20028;-60
2022/07/26 05:32:43;;;;;;;2.50;1.15;;;;;;;25.14;46.93;101355.44;5087989;28;20048;-59
2022/07/26 05:35:08;;;;;;;2.63;1.00;;;;;;;25.08;47.02;101360.81;5088252;28;20504;-60
2022/07/26 05:37:34;;;;;;;2.13;1.00;;;;;;;25.13;47.05;101361.94;5087389;28;20025;-60
2022/07/26 05:40:00;;;;;;;3.60;1.17;;;;;;;25.13;47.25;101371.97;5088042;28;20021;-58
2022/07/26 05:42:25;;;;;;;2.65;1.20;;;;;;;25.11;47.13;101371.34;5082439;28;20099;-58
2022/07/26 05:44:51;;;;;;;5.13;1.65;;;;;;;25.12;46.98;101379.31;5078931;28;20064;-59
2022/07/26 05:47:16;;;;;;;2.90;1.20;;;;;;;25.12;47.11;101384.75;5077779;28;20033;-58
2022/07/26 05:49:41;;;;;;;2.63;1.02;;;;;;;25.11;47.24;101380.34;5068090;28;20025;-59
2022/07/26 05:52:07;;;;;;;4.10;1.40;;;;;;;25.07;47.00;101380.91;5081556;28;20032;-58
2022/07/26 05:54:32;;;;;;;3.50;1.27;;;;;;;25.11;47.12;101395.84;5087763;28;20040;-59
2022/07/26 05:56:57;;;;;;;2.38;1.40;;;;;;;25.11;47.23;101393.97;5087680;28;20029;-59
2022/07/26 05:59:23;;;;;;;2.80;1.20;;;;;;;25.10;47.23;101400.41;5084253;28;20032;-59
2022/07/26 06:01:49;;;;;;;2.17;0.95;;;;;;;25.11;47.29;101404.00;5067002;28;20033;-58
2022/07/26 06:04:14;;;;;;;3.35;1.38;;;;;;;25.11;47.19;101402.13;5067559;28;20059;-58
2022/07/26 06:06:39;;;;;;;3.05;1.20;;;;;;;25.11;47.21;101402.13;5067450;28;20402;-59
2022/07/26 06:09:05;;;;;;;2.22;0.90;;;;;;;25.10;47.21;101410.47;5067292;28;20119;-59
2022/07/26 06:11:30;;;;;;;2.00;0.90;;;;;;;25.09;47.15;101406.91;5067580;28;20036;-58
2022/07/26 06:13:55;;;;;;;2.58;0.95;;;;;;;25.07;47.32;101410.84;5067244;28;20158;-59
2022/07/26 06:16:20;;;;;;;4.20;1.23;;;;;;;25.09;47.37;101417.78;5069989;28;20024;-59
2022/07/26 06:18:45;;;;;;;1.83;1.00;;;;;;;25.08;47.32;101413.41;5086540;28;20092;-59
2022/07/26 06:21:11;;;;;;;2.60;1.05;;;;;;;25.09;47.36;101416.94;5087487;28;20020;-59
2022/07/26 06:23:36;;;;;;;2.70;0.85;;;;;;;25.09;47.42;101417.78;5086963;28;20024;-59
2022/07/26 06:26:03;;;;;;;3.13;1.10;;;;;;;25.08;47.44;101418.84;5087215;28;20033;-59
2022/07/26 06:28:28;;;;;;;1.95;0.80;;;;;;;25.08;47.52;101420.69;5085611;28;20025;-60
2022/07/26 06:30:54;;;;;;;2.72;0.90;;;;;;;25.05;47.45;101413.75;5087187;28;20094;-60
2022/07/26 06:33:19;;;;;;;1.98;0.90;;;;;;;25.08;47.34;101424.28;5086674;28;20038;-59
2022/07/26 06:35:44;;;;;;;3.35;1.05;;;;;;;25.08;47.46;101426.13;5087061;28;20020;-59
2022/07/26 06:38:09;;;;;;;2.33;0.95;;;;;;;25.09;47.47;101430.56;5086447;28;20039;-59
2022/07/26 06:40:35;;;;;;;2.63;0.68;;;;;;;25.02;47.53;101424.19;5086999;28;20028;-59
2022/07/26 06:43:00;;;;;;;3.05;1.15;;;;;;;24.97;47.83;101415.78;5086153;28;20049;-59
2022/07/26 06:45:26;;;;;;;1.73;0.93;;;;;;;25.09;47.48;101441.44;5086881;28;20055;-60
2022/07/26 06:47:52;;;;;;;1.90;0.70;;;;;;;25.09;47.61;101441.44;5084721;28;20031;-60
2022/07/26 06:50:17;;;;;;;1.60;0.77;;;;;;;25.09;47.58;101439.56;5085511;28;20028;-59
2022/07/26 06:52:42;;;;;;;3.53;1.27;;;;;;;25.09;47.50;101441.44;5066368;28;20064;-60
2022/07/26 06:55:08;;;;;;;2.03;1.02;;;;;;;25.10;47.37;101443.94;5066613;28;20462;-60
2022/07/26 06:57:34;;;;;;;2.47;0.90;;;;;;;25.02;47.82;101435.06;5066301;28;20101;-59
2022/07/26 07:00:00;;;;;;;2.50;0.68;;;;;;;25.06;47.62;101447.22;5066136;28;20025;-58
2022/07/26 07:02:25;;;;;;;1.95;0.70;;;;;;;25.02;47.67;101444.09;5066050;28;20051;-61
2022/07/26 07:04:50;;;;;;;1.70;1.00;;;;;;;25.09;47.61;101461.31;5065875;28;20032;-59
2022/07/26 07:07:15;;;;;;;2.25;0.90;;;;;;;25.07;47.71;101457.94;5064870;28;20029;-59
2022/07/26 07:09:41;;;;;;;3.28;1.13;;;;;;;25.09;47.74;101463.22;5066170;28;20037;-59
2022/07/26 07:12:06;;;;;;;1.75;0.70;;;;;;;25.09;47.81;101457.75;5066273;28;20029;-60
2022/07/26 07:14:32;;;;;;;2.15;0.75;;;;;;;25.09;47.93;101468.66;5066247;28;20390;-60
2022/07/26 07:16:57;;;;;;;3.80;0.98;;;;;;;25.06;47.93;101458.97;5065617;28;20033;-59
2022/07/26 07:19:23;;;;;;;2.03;0.85;;;;;;;25.09;47.75;101480.38;5065984;28;20044;-60
2022/07/26 07:21:48;;;;;;;2.55;0.70;;;;;;;25.09;47.78;101484.97;5065968;28;20573;-59
2022/07/26 07:24:14;;;;;;;2.60;0.80;;;;;;;25.09;47.93;101484.97;5064662;28;20029;-60
2022/07/26 07:26:40;;;;;;;1.65;0.80;;;;;;;25.06;48.04;101485.31;5065665;28;20029;-60
2022/07/26 07:29:05;;;;;;;1.40;0.55;;;;;;;25.08;47.89;101491.44;5065523;28;20028;-60
2022/07/26 07:31:30;;;;;;;1.88;0.70;;;;;;;25.08;47.87;101494.16;5065821;28;20029;-58
2022/07/26 07:33:55;;;;;;;3.25;1.15;;;;;;;25.03;47.77;101493.91;5065236;28;20036;-60
2022/07/26 07:36:21;;;;;;;2.53;0.65;;;;;;;25.07;47.88;101500.63;5065666;28;20028;-60
2022/07/26 07:38:47;;;;;;;2.97;0.80;;;;;;;24.99;47.67;101492.59;5065240;28;20051;-60
2022/07/26 07:41:12;;;;;;;2.88;0.90;;;;;;;25.06;47.65;101509.81;5065950;28;20021;-59
2022/07/26 07:43:38;;;;;;;1.38;0.80;;;;;;;25.04;47.78;101504.56;5065103;28;20040;-59
2022/07/26 07:46:03;;;;;;;2.03;0.70;;;;;;;25.06;47.80;101507.97;5065893;28;20056;-59
2022/07/26 07:48:29;;;;;;;2.50;0.68;;;;;;;25.07;47.99;101514.25;5064938;28;20025;-59
2022/07/26 07:50:54;;;;;;;2.83;1.23;;;;;;;25.08;47.74;101513.19;5071759;28;20028;-59
2022/07/26 07:53:19;;;;;;;1.55;0.70;;;;;;;25.08;47.96;101513.19;5085497;28;20027;-60
2022/07/26 07:55:44;;;;;;;2.33;0.75;;;;;;;25.06;47.95;101515.25;5085334;28;20027;-59
2022/07/26 07:58:10;;;;;;;1.88;0.60;;;;;;;25.08;47.97;101521.34;5085136;28;20028;-59
2022/07/26 08:00:35;;;;;;;1.85;0.93;;;;;;;25.08;47.81;101521.34;5085606;28;20036;-59
2022/07/26 08:03:00;;;;;;;1.10;0.50;;;;;;;25.07;47.67;101519.69;5084794;28;20083;-59
2022/07/26 08:05:25;;;;;;;1.63;0.50;;;;;;;25.07;47.77;101525.13;5085365;28;20024;-59
2022/07/26 08:07:51;;;;;;;1.33;0.50;;;;;;;25.06;47.57;101535.16;5085191;28;20035;-59
2022/07/26 08:10:16;;;;;;;1.83;0.60;;;;;;;25.06;47.58;101537.03;5085248;28;20107;-59
2022/07/26 08:12:42;;;;;;;1.23;0.47;;;;;;;25.04;47.57;101534.50;5084974;28;20033;-59
2022/07/26 08:15:07;;;;;;;1.25;0.50;;;;;;;25.03;47.47;101537.44;5085405;28;20025;-59
2022/07/26 08:17:33;;;;;;;2.03;0.77;;;;;;;25.04;47.46;101545.38;5083513;28;20024;-59
2022/07/26 08:19:58;;;;;;;2.05;0.73;;;;;;;25.03;47.43;101549.16;5085014;28;20028;-59
2022/07/26 08:22:24;;;;;;;0.90;0.52;;;;;;;25.03;47.43;101549.16;5085108;28;20028;-59
2022/07/26 08:24:49;;;;;;;1.40;0.80;;;;;;;25.05;47.58;101547.06;5085256;28;20036;-59
2022/07/26 08:27:14;;;;;;;1.23;0.52;;;;;;;25.05;47.42;101554.38;5084943;28;20041;-59
2022/07/26 08:29:39;;;;;;;2.33;0.50;;;;;;;25.04;47.51;101548.09;5084913;28;20024;-59
2022/07/26 08:32:05;;;;;;;2.05;0.70;;;;;;;24.97;47.64;101532.75;5084859;28;20025;-59
2022/07/26 08:34:30;;;;;;;2.70;0.57;;;;;;;25.06;47.50;101547.91;5085246;28;20507;-58
2022/07/26 08:36:56;;;;;;;1.60;0.50;;;;;;;25.05;47.50;101552.50;5085035;28;20445;-59
2022/07/26 08:39:21;;;;;;;1.35;0.55;;;;;;;25.07;47.47;101549.63;5084819;28;20028;-59
2022/07/26 08:41:46;;;;;;;1.75;0.60;;;;;;;25.08;47.74;101559.44;5084818;28;20056;-58
2022/07/26 08:44:11;;;;;;;1.80;0.60;;;;;;;25.06;47.44;101554.22;5084565;28;20045;-59
2022/07/26 08:46:39;;;;;;;1.48;0.40;;;;;;;25.08;47.52;101559.44;5084843;28;20080;-59
2022/07/26 08:49:09;;;;;;;1.02;0.38;;;;;;;25.09;47.58;101555.72;5084600;28;20028;-59
2022/07/26 08:51:41;;;;;;;0.88;0.60;;;;;;;25.09;47.43;101564.72;5072912;28;20029;-59
2022/07/26 08:54:07;;;;;;;2.83;0.40;;;;;;;25.08;47.30;101562.16;5064982;28;20056;-59
2022/07/26 08:56:34;;;;;;;3.55;0.80;;;;;;;25.10;47.39;101560.94;5064595;28;20021;-58
2022/07/26 08:59:11;;;;;;;2.25;1.15;;;;;;;25.11;47.42;101568.09;5064400;28;20025;-58
2022/07/26 09:01:52;;;;;;;1.58;0.43;;;;;;;25.13;47.37;101565.19;5064656;28;20025;-56
2022/07/26 09:04:20;;;;;;;1.27;0.52;;;;;;;25.12;47.36;101566.22;5064719;28;20021;-59
2022/07/26 09:07:09;;;;;;;1.63;0.40;;;;;;;25.12;47.42;101567.06;5064174;28;20032;-59
2022/07/26 09:09:54;;;;;;;3.25;0.60;;;;;;;25.13;47.27;101578.78;5064307;28;20474;-60
2022/07/26 09:12:20;;;;;;;1.70;0.50;;;;;;;25.13;47.17;101581.50;5064450;28;20036;-59
2022/07/26 09:14:46;;;;;;;1.77;0.75;;;;;;;25.14;47.30;101585.91;5064752;28;20021;-59
2022/07/26 09:17:12;;;;;;;1.90;0.52;;;;;;;25.13;46.97;101585.06;5064045;28;20074;-59
2022/07/26 09:19:38;;;;;;;1.33;0.65;;;;;;;25.14;46.92;101585.91;5064168;28;20037;-59
2022/07/26 09:22:12;;;;;;;2.70;0.63;;;;;;;25.15;46.97;101593.06;5064757;28;20032;-59
2022/07/26 09:24:43;;;;;;;1.63;0.40;;;;;;;25.14;46.87;101596.78;5063308;28;20025;-60
2022/07/26 09:27:11;;;;;;;1.15;0.40;;;;;;;25.15;46.93;101602.06;5064560;28;20032;-59
2022/07/26 09:29:49;;;;;;;1.98;0.50;;;;;;;25.08;47.00;101595.69;5067996;28;20056;-59
2022/07/26 09:32:20;;;;;;;1.40;0.47;;;;;;;25.15;47.08;101604.78;5067880;28;20025;-59
2022/07/26 09:34:51;;;;;;;1.55;0.55;;;;;;;25.14;47.17;101600.34;5068057;28;20493;-60
2022/07/26 09:37:16;;;;;;;0.68;0.22;;;;;;;25.14;46.94;101611.22;5068074;28;20020;-59
2022/07/26 09:39:59;;;;;;;1.38;0.40;;;;;;;25.13;46.82;101604.13;5067736;28;20558;-59
2022/07/26 09:42:25;;;;;;;1.63;0.40;;;;;;;25.13;46.86;101619.59;5067543;28;20053;-59
2022/07/26 09:44:51;;;;;;;1.67;0.50;;;;;;;25.12;46.58;101626.09;5068034;28;20059;-59
2022/07/26 09:47:16;;;;;;;1.95;0.38;;;;;;;25.11;46.70;101629.84;5067154;28;20037;-59
2022/07/26 09:49:42;;;;;;;1.13;0.40;;;;;;;25.10;46.61;101644.47;5067676;28;20163;-59
2022/07/26 09:52:15;;;;;;;2.13;0.30;;;;;;;24.99;46.51;101615.03;5083983;28;20036;-59
2022/07/26 09:54:40;;;;;;;1.58;0.40;;;;;;;25.07;46.40;101636.69;5087686;28;20079;-60
2022/07/26 09:57:06;;;;;;;1.65;0.40;;;;;;;25.06;46.48;101635.84;5087504;28;20027;-58
2022/07/26 09:59:31;;;;;;;1.38;0.55;;;;;;;25.05;46.31;101636.00;5087561;28;20078;-59
2022/07/26 10:01:58;;;;;;;1.42;0.60;;;;;;;25.06;46.74;101640.41;5087148;28;20032;-59
2022/07/26 10:04:24;;;;;;;1.83;0.55;;;;;;;25.08;46.30;101641.09;5087777;28;20084;-60
2022/07/26 10:06:49;;;;;;;1.15;0.35;;;;;;;25.09;46.40;101648.22;5087110;28;20024;-59
2022/07/26 10:09:15;;;;;;;2.35;0.52;;;;;;;25.09;46.45;101650.94;5087311;28;20033;-59
2022/07/26 10:11:47;;;;;;;1.20;0.40;;;;;;;25.10;46.28;101647.19;5086500;28;20028;-59
2022/07/26 10:14:37;;;;;;;0.57;0.30;;;;;;;25.12;46.43;101648.69;5086218;28;20036;-59
2022/07/26 10:17:37;;;;;;;0.90;0.40;;;;;;;25.13;46.10;101653.09;5086926;28;20020;-58
2022/07/26 10:20:07;;;;;;;0.98;0.30;;;;;;;25.12;46.25;101650.56;5087214;28;20020;-59
2022/07/26 10:22:34;;;;;;;2.42;0.40;;;;;;;25.12;46.35;101658.75;5087039;28;20097;-59
2022/07/26 10:25:17;;;;;;;0.65;0.30;;;;;;;25.12;46.32;101656.03;5085984;28;20021;-59
2022/07/26 10:27:48;;;;;;;1.75;0.40;;;;;;;25.05;46.16;101645.00;5086970;28;20029;-59
2022/07/26 10:30:16;;;;;;;1.73;0.50;;;;;;;25.11;46.27;101657.06;5087300;28;20024;-59
2022/07/26 10:32:51;;;;;;;1.20;0.50;;;;;;;25.12;46.51;101656.03;5086702;28;20052;-59
2022/07/26 10:35:42;;;;;;;2.30;0.60;;;;;;;25.14;46.79;101662.09;5087383;28;20063;-59
2022/07/26 10:38:12;;;;;;;3.10;0.70;;;;;;;25.14;46.97;101660.22;5085451;28;20123;-59
2022/07/26 10:40:57;;;;;;;2.00;0.65;;;;;;;25.15;46.99;101669.25;5086012;28;20025;-60
2022/07/26 10:43:22;;;;;;;1.08;0.50;;;;;;;25.16;47.05;101673.66;5086601;28;20129;-59
2022/07/26 10:46:06;;;;;;;2.25;0.50;;;;;;;25.15;47.11;101658.38;5086688;28;20029;-59
2022/07/26 10:48:31;;;;;;;1.70;0.50;;;;;;;25.15;47.24;101661.94;5084549;28;20111;-60
2022/07/26 10:50:57;;;;;;;1.30;0.47;;;;;;;25.15;47.24;101661.94;5080053;28;20055;-60
2022/07/26 10:53:26;;;;;;;4.30;0.85;;;;;;;25.16;47.22;101662.78;5065014;28;20028;-60
2022/07/26 10:55:56;;;;;;;1.38;0.55;;;;;;;25.16;47.07;101660.88;5066550;28;20024;-60
2022/07/26 10:58:23;;;;;;;1.75;0.52;;;;;;;25.17;47.13;101654.41;5066171;28;20025;-60
2022/07/26 11:01:03;;;;;;;0.85;0.40;;;;;;;25.20;46.95;101653.19;5066774;28;20036;-59
2022/07/26 11:03:39;;;;;;;1.33;0.40;;;;;;;25.21;46.93;101663.03;5066129;28;20017;-59
2022/07/26 11:06:18;;;;;;;1.42;0.40;;;;;;;25.22;47.13;101661.16;5066416;28;20161;-59
2022/07/26 11:08:46;;;;;;;1.45;0.60;;;;;;;25.17;47.04;101668.00;5065641;28;20035;-59
2022/07/26 11:11:11;;;;;;;0.90;0.50;;;;;;;25.21;46.96;101683.97;5066489;28;20075;-59
2022/07/26 11:13:39;;;;;;;0.80;0.30;;;;;;;25.18;47.04;101679.72;5065791;28;20486;-58
2022/07/26 11:16:09;;;;;;;0.85;0.30;;;;;;;25.20;47.14;101696.72;5065219;28;20024;-59
2022/07/26 11:18:36;;;;;;;0.68;0.30;;;;;;;25.21;46.94;101706.56;5065069;28;20028;-58
2022/07/26 11:21:12;;;;;;;1.38;0.40;;;;;;;25.20;46.83;101704.91;5066228;28;20025;-59
2022/07/26 11:23:40;;;;;;;0.98;0.40;;;;;;;25.18;46.74;101706.94;5065690;28;20039;-59
2022/07/26 11:26:08;;;;;;;1.83;0.30;;;;;;;25.20;47.09;101714.94;5065905;28;20462;-58
2022/07/26 11:28:55;;;;;;;2.50;0.90;;;;;;;25.16;46.89;101720.75;5065409;28;20021;-59